Sumisemaru No.5 — JE3162 — position and weather

sailwx.info

Track history (hours):
 
Tides and Currents Weather Stations Pressure Air Temp Water Temp Dewpoint Dewpoint Depression Visibility Wind Speed Wind Dir Waves Ship Positions

Sumisemaru No.5

Last reported at 2014-Oct-30 12:33 UTC. Time now 2014-Oct-31 17:07 UTC.
Position N 34°05' E 135°00'.

Length 96 m; draft 7.1 m.

Type: Cargo ship. MMSI: 431700423.

Date/timePositionNaut miles runAvg speedWind from/ knotsBaromVisibWave heightAir tempDewpointWater temp
2014-Oct-30 12:33N 34°05' E 135°00'1110.8
2014-Oct-30 11:33N 34°14' E 135°08'0 0.2
2014-Oct-30 10:29N 34°14' E 135°08'0 0.0
2014-Oct-30 09:23N 34°14' E 135°08'0 0.1
2014-Oct-30 08:32N 34°14' E 135°08'0 0.0
2014-Oct-30 07:29N 34°14' E 135°08'0 0.0
2014-Oct-30 06:29N 34°14' E 135°08'1 1.0
2014-Oct-30 05:34N 34°14' E 135°07'236 5.3
2014-Oct-28 09:11N 35°11' E 139°45'711.7
2014-Oct-28 08:33N 35°18' E 139°44'1111.1
2014-Oct-28 07:33N 35°28' E 139°40'0 0.4
2014-Oct-28 06:33N 35°29' E 139°40'0 0.0
2014-Oct-28 05:33N 35°29' E 139°40'0 0.0
2014-Oct-28 04:33N 35°29' E 139°40'0 0.0
2014-Oct-28 03:33N 35°29' E 139°40'0 0.0
2014-Oct-28 02:33N 35°29' E 139°40'0 0.0
2014-Oct-28 01:33N 35°29' E 139°40'0 0.0
2014-Oct-28 00:33N 35°29' E 139°40'0 0.0
2014-Oct-27 23:33N 35°29' E 139°40'0 0.0
2014-Oct-27 22:33N 35°29' E 139°40'0 0.0
2014-Oct-27 21:33N 35°29' E 139°40'0 0.0
2014-Oct-27 20:33N 35°29' E 139°40'0 0.0
2014-Oct-27 19:33N 35°29' E 139°40'0 0.0
2014-Oct-27 18:32N 35°29' E 139°40'0 0.0
2014-Oct-27 17:32N 35°29' E 139°40'0 0.0
2014-Oct-27 16:32N 35°29' E 139°40'0 0.0
2014-Oct-27 15:32N 35°29' E 139°40'0 0.0
2014-Oct-27 14:32N 35°29' E 139°40'0 0.0
2014-Oct-27 13:32N 35°29' E 139°40'0 0.0
2014-Oct-27 12:32N 35°29' E 139°40'0 0.0
2014-Oct-27 11:32N 35°29' E 139°40'0 0.0
2014-Oct-27 10:32N 35°29' E 139°40'0 0.0
2014-Oct-27 09:32N 35°29' E 139°40'0 0.0
2014-Oct-27 08:32N 35°29' E 139°40'3 2.6
2014-Oct-27 07:33N 35°27' E 139°42'1 0.7
2014-Oct-27 06:31N 35°26' E 139°42'0 0.3
2014-Oct-27 05:34N 35°26' E 139°42'1212.0
2014-Oct-27 04:33N 35°14' E 139°47'  
Track history (hours):
 
Tides and Currents Weather Stations Pressure Air Temp Water Temp Dewpoint Dewpoint Depression Visibility Wind Speed Wind Dir Waves Ship Positions

Sumisemaru No.5

Last reported at 2014-Oct-30 12:33 UTC. Time now 2014-Oct-31 17:07 UTC.
Position N 34°05' E 135°00'.

Length 96 m; draft 7.1 m.

Type: Cargo ship. MMSI: 431700423.

Date/timePositionNaut miles runAvg speedWind from/ knotsBaromVisibWave heightAir tempDewpointWater temp
2014-Oct-30 12:33N 34°05' E 135°00'1110.8
2014-Oct-30 11:33N 34°14' E 135°08'0 0.2
2014-Oct-30 10:29N 34°14' E 135°08'0 0.0
2014-Oct-30 09:23N 34°14' E 135°08'0 0.1
2014-Oct-30 08:32N 34°14' E 135°08'0 0.0
2014-Oct-30 07:29N 34°14' E 135°08'0 0.0
2014-Oct-30 06:29N 34°14' E 135°08'1 1.0
2014-Oct-30 05:34N 34°14' E 135°07'236 5.3
2014-Oct-28 09:11N 35°11' E 139°45'711.7
2014-Oct-28 08:33N 35°18' E 139°44'1111.1
2014-Oct-28 07:33N 35°28' E 139°40'0 0.4
2014-Oct-28 06:33N 35°29' E 139°40'0 0.0
2014-Oct-28 05:33N 35°29' E 139°40'0 0.0
2014-Oct-28 04:33N 35°29' E 139°40'0 0.0
2014-Oct-28 03:33N 35°29' E 139°40'0 0.0
2014-Oct-28 02:33N 35°29' E 139°40'0 0.0
2014-Oct-28 01:33N 35°29' E 139°40'0 0.0
2014-Oct-28 00:33N 35°29' E 139°40'0 0.0
2014-Oct-27 23:33N 35°29' E 139°40'0 0.0
2014-Oct-27 22:33N 35°29' E 139°40'0 0.0
2014-Oct-27 21:33N 35°29' E 139°40'0 0.0
2014-Oct-27 20:33N 35°29' E 139°40'0 0.0
2014-Oct-27 19:33N 35°29' E 139°40'0 0.0
2014-Oct-27 18:32N 35°29' E 139°40'0 0.0
2014-Oct-27 17:32N 35°29' E 139°40'0 0.0
2014-Oct-27 16:32N 35°29' E 139°40'0 0.0
2014-Oct-27 15:32N 35°29' E 139°40'0 0.0
2014-Oct-27 14:32N 35°29' E 139°40'0 0.0
2014-Oct-27 13:32N 35°29' E 139°40'0 0.0
2014-Oct-27 12:32N 35°29' E 139°40'0 0.0
2014-Oct-27 11:32N 35°29' E 139°40'0 0.0
2014-Oct-27 10:32N 35°29' E 139°40'0 0.0
2014-Oct-27 09:32N 35°29' E 139°40'0 0.0
2014-Oct-27 08:32N 35°29' E 139°40'3 2.6
2014-Oct-27 07:33N 35°27' E 139°42'1 0.7
2014-Oct-27 06:31N 35°26' E 139°42'0 0.3
2014-Oct-27 05:34N 35°26' E 139°42'1212.0
2014-Oct-27 04:33N 35°14' E 139°47'  

Dump ship's entire track history